Portada
METAR-TAF:

METAR-TAF

Aeroports :

Holguín, Cuba

latitud: 20-47N, longitud: 076-19W, altitud: 106 m

Observació

L'informe es va fer fa 50 minuts, a les 21:50 UTC
Vent 14 kt del Nord/Nord-Est
Temperatura 30°C
Humitat 46%
Pressió 1011 hPa
Visibilitat 10 km o més
sense núvols per sota de 1500 mi sense presència de cumulonimbus.

METAR: MUHG 152150Z 03014KT CAVOK 30/17 Q1011

Hora: 18:40 (22:40 UTC)

Pronòstic

L'informe es va fer fa 5 hores i 40 minuts, a les 17:00 UTC
Pronòstic vàlid del 15 a les 18 UTC al 16 a les 18 UTC
Vent 12 kt del Nord-Est
Visibilitat: 9000 m
Núvols disperses a una alçada de 3000 ft
Evolucionant progressivament
l' 16 a les 02 UTC al 16 a les 05 UTC
Vent 3 kt amb direcció variable

TAF: MUHG 151700Z 1518/1618 05012KT 9000 SCT030 BECMG 1602/1605 VRB03KT

Observacions i pronòstics meteorològics de més de 4000 aeroports (METAR i TAF).

Les estacions disponibles són els punts grocs i vermells al mapa.

Posi el ratolí al punt desitjat per veure el nom de l'estació.

Feu clic per veure les observacions i els pronòstics meteorològics.

Per canviar el mapa: feu clic els botons verds amb una creu de color negre per apropar; al botó verd amb un guió per allunyar la imatge; o en les fletxes verdes per a mapes adjacents.


METAR-TAF: